createdAt,value
2022-12-01T00:01:22.927Z,2.52
2022-12-01T00:03:50.336Z,2.49
2022-12-01T00:06:20.026Z,2.45
2022-12-01T00:09:06.640Z,2.45
2022-12-01T00:11:34.771Z,2.46
2022-12-01T00:14:01.906Z,2.38
2022-12-01T00:16:29.375Z,2.26
2022-12-01T00:18:56.607Z,2.29
2022-12-01T00:21:24.934Z,2.28
2022-12-01T00:23:53.952Z,2.21
2022-12-01T00:26:21.763Z,2.26
2022-12-01T00:28:53.231Z,2.31
2022-12-01T00:31:20.279Z,2.30
2022-12-01T00:33:46.999Z,2.25
2022-12-01T00:36:14.349Z,2.31
2022-12-01T00:38:41.874Z,2.35
2022-12-01T00:41:08.731Z,2.26
2022-12-01T00:43:35.540Z,2.34
2022-12-01T00:46:02.394Z,2.27
2022-12-01T00:48:29.579Z,2.24
2022-12-01T00:50:56.416Z,2.22
2022-12-01T00:53:24.652Z,2.22
2022-12-01T00:55:53.874Z,2.18
2022-12-01T00:58:21.096Z,2.15
2022-12-01T01:00:47.879Z,2.03
2022-12-01T01:03:14.590Z,2.15
2022-12-01T01:05:43.019Z,2.13
2022-12-01T01:08:11.726Z,2.09
2022-12-01T01:10:43.698Z,2.09
2022-12-01T01:13:10.668Z,2.16
2022-12-01T01:15:37.592Z,2.14
2022-12-01T01:18:05.500Z,2.17
2022-12-01T01:20:32.693Z,2.05
2022-12-01T01:22:59.654Z,2.15
2022-12-01T01:25:26.533Z,1.98
2022-12-01T01:27:53.222Z,2.09
2022-12-01T01:30:21.080Z,2.07
2022-12-01T01:32:47.937Z,1.95
2022-12-01T01:35:14.670Z,2.02
2022-12-01T01:37:41.381Z,2.01
2022-12-01T01:40:08.767Z,1.87
2022-12-01T01:42:35.493Z,2.00
2022-12-01T01:45:02.410Z,1.97
2022-12-01T01:47:38.235Z,1.88
2022-12-01T01:50:14.187Z,1.83
2022-12-01T01:52:46.451Z,1.97
2022-12-01T01:55:13.749Z,1.93
2022-12-01T01:57:40.904Z,1.79
2022-12-01T02:00:10.853Z,1.79
2022-12-01T02:02:47.371Z,1.85
2022-12-01T02:05:32.145Z,1.87
2022-12-01T02:08:00.405Z,1.90
2022-12-01T02:10:36.306Z,1.92
2022-12-01T02:13:30.697Z,1.85
2022-12-01T02:16:20.555Z,1.68
2022-12-01T02:18:59.881Z,1.76
2022-12-01T02:21:29.540Z,1.75
2022-12-01T02:24:24.011Z,1.81
2022-12-01T02:27:23.165Z,1.77
2022-12-01T02:29:50.057Z,1.75
2022-12-01T02:32:41.601Z,1.76
2022-12-01T02:35:20.545Z,1.62
2022-12-01T02:38:03.687Z,1.79
2022-12-01T02:40:33.278Z,1.79
2022-12-01T02:43:03.745Z,1.85
2022-12-01T02:45:46.378Z,1.78
2022-12-01T02:48:29.078Z,1.78
2022-12-01T02:51:01.216Z,1.78
2022-12-01T02:53:28.113Z,1.75
2022-12-01T02:55:57.793Z,1.71
2022-12-01T02:58:24.596Z,1.67
2022-12-01T03:01:20.309Z,1.71
2022-12-01T03:04:11.771Z,1.77
2022-12-01T03:06:57.119Z,1.84
2022-12-01T03:10:01.233Z,1.86
2022-12-01T03:12:52.675Z,1.82
2022-12-01T03:15:23.114Z,1.81
2022-12-01T03:18:23.760Z,1.70
2022-12-01T03:20:57.304Z,1.73
2022-12-01T03:23:28.174Z,1.75
2022-12-01T03:25:57.935Z,1.63
2022-12-01T03:28:30.969Z,1.63
2022-12-01T03:31:04.219Z,1.73
2022-12-01T03:33:40.010Z,1.59
2022-12-01T03:36:32.352Z,1.61
2022-12-01T03:39:04.860Z,1.51
2022-12-01T03:41:42.391Z,1.62
2022-12-01T03:44:14.896Z,1.56
2022-12-01T03:47:06.318Z,1.58
2022-12-01T03:49:33.985Z,1.61
2022-12-01T03:52:43.636Z,1.56
2022-12-01T03:55:21.121Z,1.51
2022-12-01T03:57:59.347Z,1.52
2022-12-01T04:00:26.928Z,1.64
2022-12-01T04:02:58.569Z,1.62
2022-12-01T04:05:26.834Z,1.62
2022-12-01T04:07:53.787Z,1.60
2022-12-01T04:10:20.587Z,1.68
2022-12-01T04:12:47.212Z,1.57
2022-12-01T04:15:14.779Z,1.65
2022-12-01T04:17:45.677Z,1.55
2022-12-01T04:20:14.677Z,1.58
2022-12-01T04:22:41.772Z,1.66
2022-12-01T04:25:09.412Z,1.73
2022-12-01T04:27:36.828Z,1.76
2022-12-01T04:30:05.702Z,1.74
2022-12-01T04:32:32.292Z,1.78
2022-12-01T04:34:58.940Z,1.69
2022-12-01T04:37:25.659Z,1.72
2022-12-01T04:39:52.391Z,1.65
2022-12-01T04:42:19.201Z,1.76
2022-12-01T04:44:45.878Z,1.67
2022-12-01T04:47:12.519Z,1.73
2022-12-01T04:49:39.371Z,1.76
2022-12-01T04:52:06.031Z,1.76
2022-12-01T04:54:32.905Z,1.78
2022-12-01T04:56:59.485Z,1.68
2022-12-01T04:59:26.183Z,1.69
2022-12-01T05:01:52.870Z,1.70
2022-12-01T05:04:19.544Z,1.79
2022-12-01T05:06:46.220Z,1.74
2022-12-01T05:09:17.487Z,1.68
2022-12-01T05:11:44.729Z,1.79
2022-12-01T05:14:11.498Z,1.63
2022-12-01T05:16:38.637Z,1.64
2022-12-01T05:19:24.975Z,1.71
2022-12-01T05:21:52.321Z,1.71
2022-12-01T05:24:20.289Z,1.66
2022-12-01T05:26:46.952Z,1.68
2022-12-01T05:29:14.205Z,1.64
2022-12-01T05:31:41.293Z,1.69
2022-12-01T05:34:08.793Z,1.68
2022-12-01T05:36:36.758Z,1.62
2022-12-01T05:39:04.353Z,1.57
2022-12-01T05:41:30.965Z,1.54
2022-12-01T05:43:57.715Z,1.45
2022-12-01T05:46:24.539Z,1.45
2022-12-01T05:48:51.395Z,1.42
2022-12-01T05:51:18.254Z,1.47
2022-12-01T05:53:45.086Z,1.51
2022-12-01T05:56:12.383Z,1.46
2022-12-01T05:58:39.263Z,1.24
2022-12-01T06:01:06.599Z,1.50
2022-12-01T06:03:33.757Z,1.56
2022-12-01T06:06:00.849Z,1.50
2022-12-01T06:08:27.531Z,1.53
2022-12-01T06:10:54.215Z,1.37
2022-12-01T06:13:20.922Z,1.47
2022-12-01T06:15:58.044Z,1.47
2022-12-01T06:18:26.467Z,1.53
2022-12-01T06:20:53.323Z,1.36
2022-12-01T06:23:20.659Z,1.56
2022-12-01T06:25:47.348Z,1.48
2022-12-01T06:28:14.170Z,1.51
2022-12-01T06:30:40.803Z,1.43
2022-12-01T06:33:07.500Z,1.40
2022-12-01T06:35:34.940Z,1.48
2022-12-01T06:38:01.962Z,1.47
2022-12-01T06:40:28.710Z,1.44
2022-12-01T06:42:55.389Z,1.30
2022-12-01T06:45:22.024Z,1.29
2022-12-01T06:47:48.857Z,1.44
2022-12-01T06:50:15.592Z,1.39
2022-12-01T06:52:42.213Z,1.28
2022-12-01T06:55:09.165Z,1.26
2022-12-01T06:57:35.857Z,1.09
2022-12-01T07:00:04.329Z,1.09
2022-12-01T07:02:31.588Z,1.03
2022-12-01T07:04:58.332Z,1.03
2022-12-01T07:07:24.956Z,1.06
2022-12-01T07:09:51.747Z,0.92
2022-12-01T07:12:18.608Z,0.94
2022-12-01T07:14:45.418Z,0.83
2022-12-01T07:17:12.409Z,0.63
2022-12-01T07:19:39.075Z,0.78
2022-12-01T07:22:05.723Z,0.70
2022-12-01T07:24:32.408Z,0.76
2022-12-01T07:26:59.196Z,0.71
2022-12-01T07:29:25.814Z,0.67
2022-12-01T07:31:52.463Z,0.68
2022-12-01T07:34:19.083Z,0.56
2022-12-01T07:36:45.768Z,0.66
2022-12-01T07:39:12.469Z,0.71
2022-12-01T07:41:39.211Z,0.78
2022-12-01T07:44:06.055Z,0.69
2022-12-01T07:46:33.033Z,0.69
2022-12-01T07:49:00.476Z,0.63
2022-12-01T07:51:27.663Z,0.48
2022-12-01T07:53:55.347Z,0.64
2022-12-01T07:56:23.540Z,0.69
2022-12-01T07:58:50.380Z,0.70
2022-12-01T08:01:19.598Z,0.66
2022-12-01T08:03:57.599Z,0.70
2022-12-01T08:06:25.688Z,0.55
2022-12-01T08:08:52.721Z,0.62
2022-12-01T08:11:24.969Z,0.70
2022-12-01T08:13:52.304Z,0.72
2022-12-01T08:16:21.167Z,0.76
2022-12-01T08:18:48.130Z,0.85
2022-12-01T08:21:17.860Z,0.72
2022-12-01T08:23:45.007Z,0.67
2022-12-01T08:26:15.281Z,0.68
2022-12-01T08:28:42.465Z,0.82
2022-12-01T08:31:11.847Z,0.91
2022-12-01T08:33:38.573Z,0.94
2022-12-01T08:36:05.939Z,1.01
2022-12-01T08:38:33.763Z,1.04
2022-12-01T08:41:06.278Z,1.19
2022-12-01T08:46:20.639Z,1.27
2022-12-01T08:48:47.432Z,1.21
2022-12-01T08:51:19.192Z,1.24
2022-12-01T08:53:48.957Z,1.38
2022-12-01T08:56:24.133Z,1.34
2022-12-01T08:58:51.728Z,1.45
2022-12-01T09:01:19.427Z,1.31
2022-12-01T09:03:46.441Z,1.37
2022-12-01T09:06:14.710Z,1.42
2022-12-01T09:08:41.917Z,1.45
2022-12-01T09:11:13.175Z,1.54
2022-12-01T09:13:42.963Z,1.64
2022-12-01T09:16:17.305Z,1.61
2022-12-01T09:18:46.005Z,1.54
2022-12-01T09:21:24.199Z,1.66
2022-12-01T09:23:51.411Z,1.69
2022-12-01T09:26:19.675Z,1.68
2022-12-01T09:28:47.627Z,1.70
2022-12-01T09:31:16.318Z,1.73
2022-12-01T09:33:43.284Z,1.82
2022-12-01T09:36:10.601Z,1.73
2022-12-01T09:38:38.365Z,1.73
2022-12-01T09:41:20.800Z,1.76
2022-12-01T09:43:51.973Z,1.84
2022-12-01T09:46:29.004Z,1.72
2022-12-01T09:48:58.143Z,1.92
2022-12-01T09:51:28.220Z,1.98
2022-12-01T09:53:58.240Z,1.96
2022-12-01T09:56:37.697Z,1.98
2022-12-01T09:59:08.158Z,1.98
2022-12-01T10:01:38.231Z,2.01
2022-12-01T10:04:11.277Z,2.08
2022-12-01T10:06:51.796Z,2.06
2022-12-01T10:09:33.290Z,2.10
2022-12-01T10:12:08.012Z,2.13
2022-12-01T10:14:37.249Z,2.21
2022-12-01T10:17:18.960Z,2.32
2022-12-01T10:19:45.559Z,2.37
2022-12-01T10:22:58.997Z,2.37
2022-12-01T10:25:29.079Z,2.43
2022-12-01T10:28:23.501Z,2.52
2022-12-01T10:30:52.772Z,2.46
2022-12-01T10:33:41.541Z,2.57
2022-12-01T10:36:10.470Z,2.41
2022-12-01T10:38:38.312Z,2.39
2022-12-01T10:41:09.658Z,2.56
2022-12-01T10:43:49.285Z,2.50
2022-12-01T10:46:29.459Z,2.61
2022-12-01T10:48:58.938Z,2.59
2022-12-01T10:51:27.913Z,2.61
2022-12-01T10:54:00.613Z,2.50
2022-12-01T10:56:28.085Z,2.43
2022-12-01T10:59:02.977Z,2.53
2022-12-01T11:01:34.793Z,2.57
2022-12-01T11:04:34.884Z,2.57
2022-12-01T11:07:02.252Z,2.32
2022-12-01T11:09:31.019Z,2.35
2022-12-01T11:12:02.839Z,2.26
2022-12-01T11:14:44.953Z,2.28
2022-12-01T11:17:34.665Z,2.35
2022-12-01T11:20:30.449Z,2.43
2022-12-01T11:23:26.668Z,2.45
2022-12-01T11:26:16.029Z,2.45
2022-12-01T11:29:04.834Z,2.44
2022-12-01T11:31:43.819Z,2.36
2022-12-01T11:34:28.588Z,2.46
2022-12-01T11:36:58.244Z,2.37
2022-12-01T11:39:31.805Z,2.33
2022-12-01T11:42:17.158Z,2.34
2022-12-01T11:45:02.567Z,2.20
2022-12-01T11:47:30.290Z,2.19
2022-12-01T11:50:21.333Z,2.06
2022-12-01T11:52:48.187Z,2.04
2022-12-01T11:55:15.293Z,2.01
2022-12-01T11:57:44.552Z,2.00
2022-12-01T12:00:15.753Z,1.99
2022-12-01T12:03:06.993Z,1.97
2022-12-01T12:06:05.885Z,1.85
2022-12-01T12:09:02.188Z,1.64
2022-12-01T12:11:42.198Z,1.69
2022-12-01T12:14:18.960Z,1.56
2022-12-01T12:17:06.747Z,1.54
2022-12-01T12:22:39.144Z,1.43
2022-12-01T12:26:01.275Z,1.27
2022-12-01T12:29:09.355Z,1.26
2022-12-01T12:31:51.936Z,1.34
2022-12-01T12:34:30.866Z,1.40
2022-12-01T12:37:34.381Z,1.36
2022-12-01T12:40:40.286Z,1.47
2022-12-01T12:43:19.989Z,1.47
2022-12-01T12:46:05.320Z,1.35
2022-12-01T12:49:19.644Z,1.35
2022-12-01T12:51:55.678Z,1.42
2022-12-01T12:54:33.853Z,1.44
2022-12-01T12:57:26.423Z,1.56
2022-12-01T13:00:05.376Z,1.40
2022-12-01T13:03:06.188Z,1.22
2022-12-01T13:05:43.876Z,1.20
2022-12-01T13:08:23.519Z,1.22
2022-12-01T13:11:07.573Z,1.17
2022-12-01T13:13:41.313Z,1.14
2022-12-01T13:16:15.795Z,1.26
2022-12-01T13:19:03.322Z,1.19
2022-12-01T13:21:36.623Z,1.24
2022-12-01T13:24:05.197Z,1.37
2022-12-01T13:26:34.898Z,1.29
2022-12-01T13:29:06.852Z,1.30
2022-12-01T13:31:48.808Z,1.39
2022-12-01T13:34:21.306Z,1.39
2022-12-01T13:36:50.566Z,1.32
2022-12-01T13:39:20.202Z,1.29
2022-12-01T13:41:59.085Z,0.95
2022-12-01T13:44:39.716Z,1.20
2022-12-01T13:47:12.504Z,1.20
2022-12-01T13:49:45.917Z,1.30
2022-12-01T13:52:21.567Z,1.25
2022-12-01T13:55:07.951Z,1.21
2022-12-01T13:57:34.613Z,1.23
2022-12-01T14:00:01.149Z,1.27
2022-12-01T14:02:35.395Z,1.28
2022-12-01T14:05:40.513Z,1.27
2022-12-01T14:08:25.614Z,1.20
2022-12-01T14:10:58.718Z,1.19
2022-12-01T14:13:27.134Z,1.15
2022-12-01T14:15:59.671Z,1.19
2022-12-01T14:18:35.548Z,1.27
2022-12-01T14:21:05.623Z,1.22
2022-12-01T14:23:38.781Z,1.18
2022-12-01T14:26:22.703Z,1.20
2022-12-01T14:28:55.352Z,1.17
2022-12-01T14:31:23.978Z,1.10
2022-12-01T14:33:52.850Z,1.11
2022-12-01T14:36:25.193Z,1.11
2022-12-01T14:38:57.960Z,1.11
2022-12-01T14:41:49.915Z,1.16
2022-12-01T14:44:16.655Z,1.16
2022-12-01T14:46:48.922Z,1.12
2022-12-01T14:49:41.994Z,1.13
2022-12-01T14:52:21.107Z,0.95
2022-12-01T14:54:51.419Z,0.82
2022-12-01T14:57:24.126Z,0.85
2022-12-01T15:00:34.401Z,0.77
2022-12-01T15:03:06.729Z,0.90
2022-12-01T15:05:38.860Z,0.91
2022-12-01T15:08:53.164Z,0.87
2022-12-01T15:11:30.728Z,0.65
2022-12-01T15:13:57.959Z,0.85
2022-12-01T15:16:28.386Z,0.80
2022-12-01T15:18:55.252Z,0.81
2022-12-01T15:21:31.568Z,0.86
2022-12-01T15:24:17.290Z,0.69
2022-12-01T15:26:49.849Z,0.75
2022-12-01T15:29:24.411Z,0.75
2022-12-01T15:32:07.925Z,0.74
2022-12-01T15:34:44.284Z,0.81
2022-12-01T15:37:16.819Z,0.66
2022-12-01T15:39:49.935Z,0.48
2022-12-01T15:42:34.863Z,0.64
2022-12-01T15:45:04.358Z,0.68
2022-12-01T15:47:31.006Z,0.76
2022-12-01T15:49:57.640Z,0.78
2022-12-01T15:52:24.602Z,0.73
2022-12-01T15:54:51.576Z,0.57
2022-12-01T15:57:20.700Z,0.76
2022-12-01T15:59:54.155Z,0.79
2022-12-01T16:02:24.321Z,0.71
2022-12-01T16:05:19.923Z,0.82
2022-12-01T16:08:12.482Z,0.87
2022-12-01T16:10:36.532Z,0.84
2022-12-01T16:13:35.715Z,0.97
2022-12-01T16:16:30.090Z,0.93
2022-12-01T16:19:09.943Z,0.89
2022-12-01T16:21:46.909Z,0.91
2022-12-01T16:24:17.192Z,0.95
2022-12-01T16:26:55.780Z,1.03
2022-12-01T16:29:24.917Z,1.09
2022-12-01T16:32:18.749Z,1.03
2022-12-01T16:34:47.476Z,0.97
2022-12-01T16:37:15.433Z,0.97
2022-12-01T16:39:42.197Z,1.10
2022-12-01T16:42:16.590Z,0.98
2022-12-01T16:44:45.624Z,0.97
2022-12-01T16:47:18.700Z,1.06
2022-12-01T16:49:45.407Z,1.00
2022-12-01T16:54:59.816Z,0.99
2022-12-01T16:57:26.653Z,0.96
2022-12-01T16:59:57.643Z,1.02
2022-12-01T17:02:24.310Z,0.91
2022-12-01T17:04:51.242Z,0.94
2022-12-01T17:07:18.143Z,1.06
2022-12-01T17:09:44.767Z,1.00
2022-12-01T17:12:11.400Z,1.02
2022-12-01T17:14:38.273Z,0.99
2022-12-01T17:17:04.926Z,0.92
2022-12-01T17:19:31.527Z,0.94
2022-12-01T17:21:58.345Z,0.84
2022-12-01T17:24:26.049Z,0.86
2022-12-01T17:26:52.782Z,0.72
2022-12-01T17:29:19.455Z,0.85
2022-12-01T17:31:46.219Z,0.87
2022-12-01T17:34:12.857Z,0.91
2022-12-01T17:36:39.507Z,0.96
2022-12-01T17:39:06.161Z,0.88
2022-12-01T17:41:35.865Z,0.74
2022-12-01T17:44:04.130Z,0.85
2022-12-01T17:46:31.277Z,0.83
2022-12-01T17:48:58.724Z,0.88
2022-12-01T17:51:25.508Z,0.78
2022-12-01T17:53:53.860Z,0.85
2022-12-01T17:56:20.975Z,0.83
2022-12-01T17:58:50.570Z,0.84
2022-12-01T18:01:19.571Z,0.78
2022-12-01T18:03:47.248Z,0.82
2022-12-01T18:06:15.169Z,0.74
2022-12-01T18:08:42.517Z,0.80
2022-12-01T18:11:11.898Z,0.87
2022-12-01T18:13:43.955Z,0.78
2022-12-01T18:16:16.360Z,0.76
2022-12-01T18:18:43.772Z,0.69
2022-12-01T18:21:14.602Z,0.81
2022-12-01T18:23:41.603Z,0.77
2022-12-01T18:26:15.724Z,0.91
2022-12-01T18:28:43.701Z,0.82
2022-12-01T18:31:13.258Z,0.87
2022-12-01T18:33:41.939Z,0.95
2022-12-01T18:36:19.531Z,0.93
2022-12-01T18:38:47.421Z,1.11
2022-12-01T18:41:15.333Z,1.03
2022-12-01T18:43:43.008Z,1.25
2022-12-01T18:46:11.589Z,1.31
2022-12-01T18:48:38.270Z,1.38
2022-12-01T18:51:07.574Z,1.37
2022-12-01T18:53:34.813Z,1.22
2022-12-01T18:56:06.976Z,1.20
2022-12-01T18:58:34.337Z,1.23
2022-12-01T19:01:01.938Z,1.20
2022-12-01T19:03:30.548Z,1.22
2022-12-01T19:05:57.185Z,1.10
2022-12-01T19:08:24.234Z,1.11
2022-12-01T19:11:02.002Z,1.11
2022-12-01T19:13:30.755Z,0.95
2022-12-01T19:15:58.164Z,0.81
2022-12-01T19:18:25.120Z,0.68
2022-12-01T19:20:52.981Z,0.63
2022-12-01T19:23:19.962Z,0.80
2022-12-01T19:25:46.713Z,0.73
2022-12-01T19:28:13.526Z,0.74
2022-12-01T19:30:45.326Z,0.73
2022-12-01T19:33:15.099Z,0.79
2022-12-01T19:35:41.876Z,0.81
2022-12-01T19:38:08.738Z,0.79
2022-12-01T19:40:38.564Z,0.85
2022-12-01T19:43:06.016Z,0.84
2022-12-01T19:45:33.876Z,0.83
2022-12-01T19:48:01.185Z,0.89
2022-12-01T19:50:28.126Z,0.93
2022-12-01T19:52:54.959Z,0.95
2022-12-01T19:55:21.584Z,1.02
2022-12-01T19:57:52.061Z,1.12
2022-12-01T20:00:19.976Z,1.04
2022-12-01T20:02:46.596Z,1.24
2022-12-01T20:05:13.366Z,1.29
2022-12-01T20:07:40.159Z,1.26
2022-12-01T20:10:07.510Z,1.21
2022-12-01T20:12:34.707Z,1.29
2022-12-01T20:15:01.765Z,1.22
2022-12-01T20:17:29.982Z,1.24
2022-12-01T20:19:56.779Z,1.11
2022-12-01T20:22:23.532Z,1.26
2022-12-01T20:24:50.271Z,1.28
2022-12-01T20:27:17.357Z,1.27
2022-12-01T20:29:44.167Z,1.19
2022-12-01T20:32:11.347Z,1.25
2022-12-01T20:34:38.175Z,1.31
2022-12-01T20:37:05.439Z,1.42
2022-12-01T20:39:35.353Z,1.58
2022-12-01T20:42:02.064Z,1.56
2022-12-01T20:44:29.397Z,1.54
2022-12-01T20:46:56.124Z,1.61
2022-12-01T20:49:23.377Z,1.57
2022-12-01T20:51:50.545Z,1.65
2022-12-01T20:54:27.878Z,1.61
2022-12-01T20:56:55.037Z,1.63
2022-12-01T20:59:21.684Z,1.68
2022-12-01T21:01:48.540Z,1.61
2022-12-01T21:04:15.195Z,1.65
2022-12-01T21:06:42.288Z,1.56
2022-12-01T21:09:09.256Z,1.57
2022-12-01T21:12:17.156Z,1.59
2022-12-01T21:15:02.479Z,1.54
2022-12-01T21:17:40.797Z,1.41
2022-12-01T21:20:29.264Z,1.41
2022-12-01T21:23:02.351Z,1.36
2022-12-01T21:25:29.011Z,1.28
2022-12-01T21:28:01.164Z,1.33
2022-12-01T21:30:29.844Z,1.35
2022-12-01T21:33:20.040Z,1.42
2022-12-01T21:35:50.879Z,1.49
2022-12-01T21:38:21.758Z,1.47
2022-12-01T21:40:49.144Z,1.48
2022-12-01T21:43:25.096Z,1.40
2022-12-01T21:45:56.134Z,1.53
2022-12-01T21:48:25.752Z,1.58
2022-12-01T21:51:02.419Z,1.58
2022-12-01T21:53:37.484Z,1.49
2022-12-01T21:56:04.669Z,1.71
2022-12-01T21:58:37.587Z,1.56
2022-12-01T22:01:38.704Z,1.39
2022-12-01T22:04:20.951Z,1.41
2022-12-01T22:06:55.487Z,1.03
2022-12-01T22:09:27.254Z,1.52
2022-12-01T22:12:01.593Z,1.40
2022-12-01T22:14:36.630Z,0.90
2022-12-01T22:17:09.405Z,1.49
2022-12-01T22:19:40.070Z,1.16
2022-12-01T22:22:09.817Z,1.40
2022-12-01T22:24:40.007Z,1.41
2022-12-01T22:27:28.039Z,1.40
2022-12-01T22:30:22.232Z,1.52
2022-12-01T22:33:04.189Z,1.24
2022-12-01T22:35:43.977Z,1.37
2022-12-01T22:38:32.282Z,1.27
2022-12-01T22:41:20.168Z,1.34
2022-12-01T22:43:50.735Z,1.31
2022-12-01T22:46:28.837Z,1.18
2022-12-01T22:48:59.297Z,1.22
2022-12-01T22:51:46.175Z,1.28
2022-12-01T22:54:13.640Z,1.32
2022-12-01T22:56:46.350Z,1.24
2022-12-01T22:59:23.196Z,1.37
2022-12-01T23:01:53.186Z,1.23
2022-12-01T23:04:27.719Z,1.27
2022-12-01T23:06:59.260Z,1.31
2022-12-01T23:09:42.457Z,1.52
2022-12-01T23:12:11.876Z,1.64
2022-12-01T23:14:50.993Z,1.64
2022-12-01T23:17:29.027Z,1.60
2022-12-01T23:20:17.667Z,1.56
2022-12-01T23:22:44.496Z,1.24
2022-12-01T23:25:17.574Z,1.41
2022-12-01T23:27:48.267Z,1.48
2022-12-01T23:30:17.436Z,1.60
2022-12-01T23:32:46.634Z,1.45
2022-12-01T23:35:18.297Z,1.52
2022-12-01T23:37:47.510Z,1.34
2022-12-01T23:40:20.288Z,1.28
2022-12-01T23:42:47.196Z,1.12
2022-12-01T23:45:21.810Z,1.10
2022-12-01T23:47:50.190Z,1.04
2022-12-01T23:50:22.443Z,0.93
2022-12-01T23:52:49.101Z,1.05
2022-12-01T23:55:36.041Z,0.97
2022-12-01T23:58:03.935Z,0.88
